createdAt,value
2022-08-22T00:03:08.941Z,101090.94
2022-08-22T00:03:15.333Z,101094.00
2022-08-22T00:07:35.773Z,101093.63
2022-08-22T00:11:47.439Z,101091.31
2022-08-22T00:16:20.843Z,101090.16
2022-08-22T00:20:30.859Z,101089.91
2022-08-22T00:24:40.215Z,101087.69
2022-08-22T00:28:49.952Z,101082.09
2022-08-22T00:33:05.182Z,101087.22
2022-08-22T00:37:30.794Z,101093.13
2022-08-22T00:41:59.679Z,101092.28
2022-08-22T00:46:23.860Z,101096.56
2022-08-22T00:50:37.571Z,101094.53
2022-08-22T00:55:00.703Z,101090.50
2022-08-22T00:59:22.958Z,101088.06
2022-08-22T01:03:49.374Z,101085.22
2022-08-22T01:08:09.425Z,101089.56
2022-08-22T01:12:29.875Z,101094.22
2022-08-22T01:17:09.984Z,101101.31
2022-08-22T01:21:39.045Z,101111.66
2022-08-22T01:26:19.042Z,101113.22
2022-08-22T01:31:01.253Z,101119.13
2022-08-22T01:35:29.865Z,101110.69
2022-08-22T01:40:02.049Z,101119.88
2022-08-22T01:44:29.937Z,101117.00
2022-08-22T01:48:53.238Z,101116.56
2022-08-22T01:53:00.502Z,101112.19
2022-08-22T01:57:07.703Z,101116.13
2022-08-22T02:01:24.376Z,101113.78
2022-08-22T02:05:37.321Z,101112.13
2022-08-22T02:09:38.719Z,101111.88
2022-08-22T02:13:57.091Z,101105.13
2022-08-22T02:18:03.365Z,101104.03
2022-08-22T02:22:29.515Z,101114.72
2022-08-22T02:26:50.166Z,101115.47
2022-08-22T02:31:11.922Z,101110.69
2022-08-22T02:35:33.346Z,101109.56
2022-08-22T02:39:45.844Z,101117.59
2022-08-22T02:44:14.500Z,101117.16
2022-08-22T02:48:18.634Z,101114.41
2022-08-22T02:52:40.312Z,101107.25
2022-08-22T02:57:11.377Z,101108.06
2022-08-22T03:01:33.500Z,101101.59
2022-08-22T03:05:37.975Z,101099.59
2022-08-22T03:09:56.336Z,101104.75
2022-08-22T03:14:13.733Z,101109.41
2022-08-22T03:18:25.868Z,101107.47
2022-08-22T03:22:48.634Z,101106.13
2022-08-22T03:27:33.188Z,101098.88
2022-08-22T03:31:35.944Z,101100.38
2022-08-22T03:35:46.422Z,101099.47
2022-08-22T03:39:57.790Z,101096.69
2022-08-22T03:44:18.872Z,101095.03
2022-08-22T03:48:51.319Z,101103.09
2022-08-22T03:53:31.238Z,101101.19
2022-08-22T03:58:27.447Z,101105.97
2022-08-22T04:02:51.728Z,101114.00
2022-08-22T04:07:31.884Z,101110.44
2022-08-22T04:11:36.793Z,101116.34
2022-08-22T04:16:06.334Z,101115.22
2022-08-22T04:20:20.812Z,101116.91
2022-08-22T04:24:51.925Z,101113.09
2022-08-22T04:29:03.108Z,101114.41
2022-08-22T04:33:16.465Z,101125.19
2022-08-22T04:37:25.103Z,101126.72
2022-08-22T04:41:52.971Z,101131.19
2022-08-22T04:46:08.047Z,101135.69
2022-08-22T04:50:21.073Z,101137.75
2022-08-22T04:54:54.710Z,101143.41
2022-08-22T04:59:04.611Z,101146.56
2022-08-22T05:03:14.474Z,101163.34
2022-08-22T05:07:20.469Z,101162.13
2022-08-22T05:11:23.431Z,101163.06
2022-08-22T05:15:31.154Z,101167.75
2022-08-22T05:19:40.115Z,101166.00
2022-08-22T05:23:48.173Z,101166.09
2022-08-22T05:27:56.330Z,101175.75
2022-08-22T05:32:03.556Z,101178.84
2022-08-22T05:36:08.629Z,101181.06
2022-08-22T05:40:19.716Z,101182.94
2022-08-22T05:44:25.495Z,101182.13
2022-08-22T05:48:49.607Z,101185.41
2022-08-22T05:53:18.924Z,101182.69
2022-08-22T05:57:27.214Z,101192.88
2022-08-22T06:01:35.718Z,101195.38
2022-08-22T06:05:41.971Z,101192.56
2022-08-22T06:09:46.783Z,101198.69
2022-08-22T06:14:10.656Z,101191.44
2022-08-22T06:18:19.554Z,101207.66
2022-08-22T06:22:32.464Z,101208.53
2022-08-22T06:26:45.240Z,101196.19
2022-08-22T06:30:54.038Z,101207.84
2022-08-22T06:35:03.547Z,101207.84
2022-08-22T06:39:25.138Z,101213.88
2022-08-22T06:43:38.905Z,101214.22
2022-08-22T06:47:49.851Z,101215.03
2022-08-22T06:51:53.566Z,101218.97
2022-08-22T06:55:59.269Z,101220.94
2022-08-22T07:00:06.883Z,101219.66
2022-08-22T07:04:10.187Z,101226.88
2022-08-22T07:08:19.282Z,101221.91
2022-08-22T07:12:31.413Z,101231.53
2022-08-22T07:16:52.114Z,101234.41
2022-08-22T07:21:02.745Z,101238.75
2022-08-22T07:25:12.533Z,101243.66
2022-08-22T07:29:25.430Z,101245.06
2022-08-22T07:33:51.777Z,101241.19
2022-08-22T07:38:14.771Z,101241.03
2022-08-22T07:42:21.566Z,101239.84
2022-08-22T07:46:35.780Z,101243.63
2022-08-22T07:50:45.780Z,101245.66
2022-08-22T07:55:04.799Z,101249.31
2022-08-22T07:59:12.977Z,101246.94
2022-08-22T08:03:15.267Z,101240.53
2022-08-22T08:07:20.723Z,101242.59
2022-08-22T08:11:25.962Z,101253.81
2022-08-22T08:15:27.455Z,101243.69
2022-08-22T08:19:35.657Z,101250.50
2022-08-22T08:23:46.847Z,101244.06
2022-08-22T08:28:09.843Z,101238.94
2022-08-22T08:32:13.343Z,101239.44
2022-08-22T08:36:23.895Z,101243.34
2022-08-22T08:40:31.409Z,101241.34
2022-08-22T08:44:49.474Z,101243.72
2022-08-22T08:48:57.159Z,101243.22
2022-08-22T08:53:17.250Z,101231.41
2022-08-22T08:57:39.804Z,101230.19
2022-08-22T09:02:13.785Z,101236.03
2022-08-22T09:06:37.174Z,101236.03
2022-08-22T09:11:21.801Z,101236.25
2022-08-22T09:15:37.507Z,101230.69
2022-08-22T09:19:49.220Z,101242.69
2022-08-22T09:23:59.646Z,101241.06
2022-08-22T09:28:13.755Z,101242.91
2022-08-22T09:32:30.323Z,101246.31
2022-08-22T09:37:07.855Z,101248.34
2022-08-22T09:41:09.346Z,101249.47
2022-08-22T09:45:45.539Z,101242.34
2022-08-22T09:50:13.637Z,101244.56
2022-08-22T09:54:42.350Z,101243.72
2022-08-22T09:58:48.336Z,101236.00
2022-08-22T10:03:03.723Z,101241.81
2022-08-22T10:07:27.152Z,101236.84
2022-08-22T10:11:38.763Z,101248.34
2022-08-22T10:15:49.133Z,101245.25
2022-08-22T10:19:57.409Z,101252.75
2022-08-22T10:24:25.467Z,101254.19
2022-08-22T10:28:40.750Z,101246.34
2022-08-22T10:33:08.617Z,101244.88
2022-08-22T10:37:26.265Z,101246.19
2022-08-22T10:41:36.139Z,101242.81
2022-08-22T10:45:41.974Z,101251.94
2022-08-22T10:49:51.517Z,101243.97
2022-08-22T10:54:04.697Z,101245.03
2022-08-22T10:58:11.269Z,101239.75
2022-08-22T11:02:27.425Z,101241.91
2022-08-22T11:06:44.831Z,101244.66
2022-08-22T11:11:02.254Z,101238.44
2022-08-22T11:15:49.582Z,101243.28
2022-08-22T11:20:19.528Z,101242.00
2022-08-22T11:24:35.639Z,101233.69
2022-08-22T11:28:52.971Z,101241.47
2022-08-22T11:33:47.382Z,101243.81
2022-08-22T11:38:11.200Z,101228.84
2022-08-22T11:42:21.779Z,101239.47
2022-08-22T11:46:39.859Z,101238.81
2022-08-22T11:51:15.432Z,101234.84
2022-08-22T11:55:40.752Z,101228.84
2022-08-22T11:59:45.274Z,101228.50
2022-08-22T12:04:15.621Z,101225.81
2022-08-22T12:08:50.750Z,101230.25
2022-08-22T12:13:11.670Z,101222.34
2022-08-22T12:17:56.015Z,101217.53
2022-08-22T12:22:38.612Z,101216.34
2022-08-22T12:26:50.079Z,101226.09
2022-08-22T12:31:00.685Z,101206.34
2022-08-22T12:35:14.618Z,101209.28
2022-08-22T12:39:41.518Z,101208.28
2022-08-22T12:44:17.172Z,101208.53
2022-08-22T12:48:57.935Z,101200.22
2022-08-22T12:53:20.195Z,101193.50
2022-08-22T12:57:33.706Z,101200.44
2022-08-22T13:01:49.870Z,101186.69
2022-08-22T13:05:57.131Z,101186.56
2022-08-22T13:10:26.020Z,101182.84
2022-08-22T13:14:31.868Z,101183.91
2022-08-22T13:18:53.677Z,101182.06
2022-08-22T13:22:56.350Z,101178.28
2022-08-22T13:27:05.639Z,101180.88
2022-08-22T13:31:09.732Z,101171.31
2022-08-22T13:35:24.006Z,101182.13
2022-08-22T13:39:33.205Z,101180.34
2022-08-22T13:43:37.767Z,101180.44
2022-08-22T13:47:49.499Z,101176.91
2022-08-22T13:52:02.479Z,101184.22
2022-08-22T13:56:16.823Z,101178.00
2022-08-22T14:00:28.770Z,101179.88
2022-08-22T14:04:36.463Z,101170.78
2022-08-22T14:08:45.276Z,101172.34
2022-08-22T14:12:56.624Z,101177.25
2022-08-22T14:16:59.421Z,101169.84
2022-08-22T14:21:28.784Z,101163.13
2022-08-22T14:25:43.255Z,101167.47
2022-08-22T14:29:53.008Z,101159.53
2022-08-22T14:34:10.495Z,101158.56
2022-08-22T14:38:39.524Z,101160.66
2022-08-22T14:43:22.166Z,101162.72
2022-08-22T14:48:30.071Z,101165.13
2022-08-22T14:52:30.009Z,101153.81
2022-08-22T14:56:32.728Z,101155.91
2022-08-22T15:00:40.903Z,101159.50
2022-08-22T15:04:46.903Z,101161.66
2022-08-22T15:08:50.090Z,101165.09
2022-08-22T15:12:55.183Z,101161.34
2022-08-22T15:17:00.390Z,101156.53
2022-08-22T15:21:10.026Z,101160.63
2022-08-22T15:25:22.372Z,101170.06
2022-08-22T15:29:27.608Z,101165.81
2022-08-22T15:33:39.132Z,101169.63
2022-08-22T15:38:06.364Z,101161.97
2022-08-22T15:42:08.283Z,101156.00
2022-08-22T15:46:28.747Z,101153.44
2022-08-22T15:50:34.820Z,101156.03
2022-08-22T15:54:38.241Z,101159.94
2022-08-22T15:58:54.005Z,101151.22
2022-08-22T16:03:24.402Z,101162.78
2022-08-22T16:07:43.398Z,101162.47
2022-08-22T16:11:53.638Z,101160.97
2022-08-22T16:16:06.950Z,101156.63
2022-08-22T16:20:09.876Z,101155.16
2022-08-22T16:24:19.039Z,101152.63
2022-08-22T16:28:56.300Z,101158.66
2022-08-22T16:32:55.357Z,101161.19
2022-08-22T16:37:02.940Z,101150.53
2022-08-22T16:41:05.377Z,101158.72
2022-08-22T16:45:16.105Z,101159.16
2022-08-22T16:49:30.528Z,101158.66
2022-08-22T16:53:37.726Z,101157.44
2022-08-22T16:58:40.060Z,101174.97
2022-08-22T17:03:12.578Z,101170.31
2022-08-22T17:07:35.418Z,101171.88
2022-08-22T17:11:39.800Z,101177.34
2022-08-22T17:15:51.397Z,101172.25
2022-08-22T17:20:24.845Z,101174.66
2022-08-22T17:24:45.000Z,101172.50
2022-08-22T17:29:05.100Z,101170.28
2022-08-22T17:33:59.611Z,101171.41
2022-08-22T17:38:42.483Z,101182.34
2022-08-22T17:43:04.686Z,101188.09
2022-08-22T17:47:30.017Z,101193.94
2022-08-22T17:51:54.893Z,101201.50
2022-08-22T18:00:11.771Z,101205.66
2022-08-22T18:04:49.355Z,101215.44
2022-08-22T18:09:16.298Z,101222.38
2022-08-22T18:13:42.365Z,101229.13
2022-08-22T18:17:55.350Z,101226.53
2022-08-22T18:22:07.233Z,101227.72
2022-08-22T18:26:17.730Z,101228.72
2022-08-22T18:30:22.346Z,101231.72
2022-08-22T18:34:40.035Z,101231.09
2022-08-22T18:38:50.692Z,101229.78
2022-08-22T18:42:59.923Z,101228.78
2022-08-22T18:47:10.186Z,101224.03
2022-08-22T18:51:20.244Z,101222.31
2022-08-22T18:55:48.692Z,101222.03
2022-08-22T19:00:16.600Z,101224.53
2022-08-22T19:04:36.788Z,101230.63
2022-08-22T19:09:05.199Z,101231.16
2022-08-22T19:13:57.103Z,101235.97
2022-08-22T19:18:20.068Z,101235.97
2022-08-22T19:22:25.408Z,101237.03
2022-08-22T19:26:38.524Z,101245.31
2022-08-22T19:30:51.852Z,101247.91
2022-08-22T19:35:21.980Z,101243.53
2022-08-22T19:39:41.737Z,101251.28
2022-08-22T19:43:44.216Z,101251.47
2022-08-22T19:47:56.689Z,101253.81
2022-08-22T19:52:16.442Z,101256.06
2022-08-22T19:56:24.307Z,101257.63
2022-08-22T20:01:06.269Z,101270.59
2022-08-22T20:05:31.903Z,101253.59
2022-08-22T20:10:17.032Z,101255.47
2022-08-22T20:14:31.056Z,101260.00
2022-08-22T20:19:00.142Z,101256.78
2022-08-22T20:23:15.362Z,101256.06
2022-08-22T20:27:27.362Z,101255.06
2022-08-22T20:31:34.382Z,101257.69
2022-08-22T20:35:41.065Z,101244.66
2022-08-22T20:39:58.667Z,101249.19
2022-08-22T20:44:03.481Z,101246.63
2022-08-22T20:48:09.952Z,101246.84
2022-08-22T20:52:23.847Z,101254.09
2022-08-22T20:56:53.184Z,101249.59
2022-08-22T21:01:00.040Z,101254.44
2022-08-22T21:05:01.769Z,101260.09
2022-08-22T21:09:31.573Z,101253.34
2022-08-22T21:13:36.185Z,101251.34
2022-08-22T21:17:39.603Z,101254.16
2022-08-22T21:21:41.087Z,101255.75
2022-08-22T21:26:02.358Z,101254.13
2022-08-22T21:30:08.521Z,101266.66
2022-08-22T21:34:22.475Z,101262.63
2022-08-22T21:38:24.341Z,101268.59
2022-08-22T21:42:38.564Z,101272.66
2022-08-22T21:46:40.059Z,101269.34
2022-08-22T21:50:41.921Z,101266.81
2022-08-22T21:54:43.640Z,101260.47
2022-08-22T21:58:46.287Z,101264.06
2022-08-22T22:02:47.710Z,101252.69
2022-08-22T22:06:49.189Z,101257.56
2022-08-22T22:10:53.777Z,101261.44
2022-08-22T22:14:55.293Z,101273.81
2022-08-22T22:18:57.147Z,101259.53
2022-08-22T22:22:58.907Z,101261.97
2022-08-22T22:27:01.875Z,101262.34
2022-08-22T22:31:03.901Z,101252.59
2022-08-22T22:35:06.141Z,101249.50
2022-08-22T22:39:08.796Z,101250.19
2022-08-22T22:43:11.389Z,101250.16
2022-08-22T22:47:12.938Z,101235.69
2022-08-22T22:51:15.158Z,101240.16
2022-08-22T22:55:24.212Z,101249.34
2022-08-22T22:59:26.613Z,101245.34
2022-08-22T23:03:28.077Z,101238.88
2022-08-22T23:07:29.536Z,101251.72
2022-08-22T23:11:35.668Z,101251.09
2022-08-22T23:15:37.172Z,101249.91
2022-08-22T23:19:38.981Z,101245.09
2022-08-22T23:23:40.608Z,101253.13
2022-08-22T23:27:42.538Z,101250.25
2022-08-22T23:31:50.506Z,101250.66
2022-08-22T23:35:51.984Z,101246.13
2022-08-22T23:39:58.428Z,101248.91
2022-08-22T23:44:00.180Z,101247.84
2022-08-22T23:48:01.776Z,101242.94
2022-08-22T23:52:05.189Z,101235.72
2022-08-22T23:56:19.496Z,101240.59
